Time;durP1;ratioP1;P1;durP2;ratioP2;P2;SDS_P1;SDS_P2;PMS_P1;PMS_P2;Temp;Humidity;BMP_temperature;BMP_pressure;BME280_temperature;BME280_humidity;BME280_pressure;Samples;Min_cycle;Max_cycle;Signal;HPM_P1;HPM_P2
2022/04/26 03:37:09;;;;;;;9.93;8.23;;;;;;;;;;4912004;29;20099;-69
2022/04/26 03:39:35;;;;;;;11.73;9.05;;;;;;;;;;4912317;29;20036;-68
2022/04/26 03:42:02;;;;;;;11.68;8.57;;;;;;;;;;4915786;29;20475;-68
2022/04/26 03:44:28;;;;;;;12.95;8.95;;;;;;;;;;4914677;29;20795;-69
2022/04/26 03:46:54;;;;;;;13.23;10.05;;;;;;;;;;4913979;29;20052;-71
2022/04/26 03:49:21;;;;;;;14.25;9.75;;;;;;;;;;4911279;29;20484;-69
2022/04/26 03:51:47;;;;;;;11.15;9.15;;;;;;;;;;4915738;29;20035;-70
2022/04/26 03:54:12;;;;;;;13.18;10.02;;;;;;;;;;4910220;29;20043;-69
2022/04/26 03:56:37;;;;;;;14.73;10.88;;;;;;;;;;4908052;29;20047;-68
2022/04/26 03:59:03;;;;;;;11.93;9.52;;;;;;;;;;4915249;29;20052;-70
2022/04/26 04:01:28;;;;;;;13.38;9.07;;;;;;;;;;4910982;29;20041;-69
2022/04/26 04:03:53;;;;;;;12.23;8.80;;;;;;;;;;4916064;29;20040;-69
2022/04/26 04:06:19;;;;;;;13.40;9.45;;;;;;;;;;4915289;29;20039;-68
2022/04/26 04:08:44;;;;;;;11.23;8.10;;;;;;;;;;4914581;29;20119;-68
2022/04/26 04:11:09;;;;;;;9.00;6.60;;;;;;;;;;4913132;29;20039;-69
2022/04/26 04:13:35;;;;;;;8.45;5.80;;;;;;;;;;4913843;29;20052;-68
2022/04/26 04:16:00;;;;;;;9.65;5.82;;;;;;;;;;4912647;29;20052;-68
2022/04/26 04:21:10;;;;;;;6.15;4.78;;;;;;;;;;4913512;29;20277;-68
2022/04/26 04:23:36;;;;;;;7.18;4.60;;;;;;;;;;4915665;29;20480;-68
2022/04/26 04:26:02;;;;;;;7.90;5.30;;;;;;;;;;4912676;29;20047;-69
2022/04/26 04:28:31;;;;;;;6.28;4.53;;;;;;;;;;4909388;29;20049;-68
2022/04/26 04:30:57;;;;;;;7.35;4.97;;;;;;;;;;4915121;29;20408;-69
2022/04/26 04:33:22;;;;;;;6.70;5.05;;;;;;;;;;4914190;29;20044;-68
2022/04/26 04:35:47;;;;;;;5.97;4.68;;;;;;;;;;4911383;29;20139;-69
2022/04/26 04:38:13;;;;;;;7.88;5.45;;;;;;;;;;4910764;29;20127;-69
2022/04/26 04:40:38;;;;;;;7.18;4.53;;;;;;;;;;4910457;29;20052;-68
2022/04/26 04:43:04;;;;;;;6.97;5.05;;;;;;;;;;4912007;29;20059;-68
2022/04/26 04:45:29;;;;;;;6.03;4.85;;;;;;;;;;4912193;29;20040;-68
2022/04/26 04:47:55;;;;;;;6.18;4.40;;;;;;;;;;4913312;29;20051;-68
2022/04/26 04:50:20;;;;;;;5.22;4.05;;;;;;;;;;4914341;29;20056;-68
2022/04/26 04:52:45;;;;;;;4.97;3.80;;;;;;;;;;4910947;29;20052;-68
2022/04/26 04:55:11;;;;;;;7.03;4.63;;;;;;;;;;4910970;29;20071;-68
2022/04/26 04:57:36;;;;;;;5.80;4.40;;;;;;;;;;4910695;29;20044;-68
2022/04/26 05:00:03;;;;;;;6.57;4.95;;;;;;;;;;4912721;29;20031;-69
2022/04/26 05:02:28;;;;;;;5.60;4.10;;;;;;;;;;4912276;29;20135;-69
2022/04/26 05:04:53;;;;;;;6.68;4.05;;;;;;;;;;4910493;29;20175;-68
2022/04/26 05:07:19;;;;;;;5.53;3.80;;;;;;;;;;4908835;29;20052;-68
2022/04/26 05:09:44;;;;;;;4.90;3.63;;;;;;;;;;4914918;29;20108;-68
2022/04/26 05:12:10;;;;;;;4.00;3.47;;;;;;;;;;4908433;29;20059;-68
2022/04/26 05:14:35;;;;;;;4.35;3.60;;;;;;;;;;4910941;29;20044;-68
2022/04/26 05:17:00;;;;;;;3.75;3.03;;;;;;;;;;4912227;29;20052;-68
2022/04/26 05:19:26;;;;;;;3.28;2.97;;;;;;;;;;4908226;29;20043;-68
2022/04/26 05:21:51;;;;;;;3.55;2.80;;;;;;;;;;4911279;29;20035;-69
2022/04/26 05:27:01;;;;;;;4.30;2.97;;;;;;;;;;4908945;29;20051;-68
2022/04/26 05:29:26;;;;;;;3.95;2.40;;;;;;;;;;4911103;29;20069;-69
2022/04/26 05:31:52;;;;;;;3.90;3.10;;;;;;;;;;4912896;29;20048;-69
2022/04/26 05:34:17;;;;;;;4.40;2.65;;;;;;;;;;4910962;29;20071;-68
2022/04/26 05:36:42;;;;;;;4.70;2.50;;;;;;;;;;4910365;29;20119;-69
2022/04/26 05:39:08;;;;;;;3.03;2.45;;;;;;;;;;4910120;29;20103;-67
2022/04/26 05:41:33;;;;;;;3.17;2.40;;;;;;;;;;4911564;29;20090;-68
2022/04/26 05:43:58;;;;;;;3.22;2.75;;;;;;;;;;4911554;29;20052;-69
2022/04/26 05:46:24;;;;;;;2.92;2.60;;;;;;;;;;4907051;29;20079;-68
2022/04/26 05:48:49;;;;;;;3.63;2.55;;;;;;;;;;4912036;29;21259;-67
2022/04/26 05:51:15;;;;;;;3.63;2.80;;;;;;;;;;4913401;29;20467;-66
2022/04/26 05:53:41;;;;;;;3.63;2.85;;;;;;;;;;4910539;29;20108;-68
2022/04/26 05:56:08;;;;;;;4.43;3.38;;;;;;;;;;4911035;29;20059;-68
2022/04/26 05:58:34;;;;;;;4.63;3.53;;;;;;;;;;4906634;29;20584;-58
2022/04/26 06:00:59;;;;;;;4.65;3.35;;;;;;;;;;4914280;29;20198;-57
2022/04/26 06:03:25;;;;;;;4.47;3.92;;;;;;;;;;4909445;29;20064;-57
2022/04/26 06:05:52;;;;;;;7.47;3.83;;;;;;;;;;4910419;29;20514;-58
2022/04/26 06:08:17;;;;;;;5.20;4.20;;;;;;;;;;4906990;29;20062;-57
2022/04/26 06:10:43;;;;;;;4.82;3.90;;;;;;;;;;4908568;29;20041;-57
2022/04/26 06:13:09;;;;;;;7.28;5.03;;;;;;;;;;4908315;29;20415;-55
2022/04/26 06:15:35;;;;;;;8.13;5.30;;;;;;;;;;4907317;29;20040;-57
2022/04/26 06:18:00;;;;;;;10.52;5.40;;;;;;;;;;4912754;29;20080;-56
2022/04/26 06:20:26;;;;;;;7.22;5.32;;;;;;;;;;4912638;29;20060;-58
2022/04/26 06:22:52;;;;;;;8.48;5.13;;;;;;;;;;4911319;29;20063;-57
2022/04/26 06:25:17;;;;;;;7.95;5.45;;;;;;;;;;4907058;29;20048;-56
2022/04/26 06:27:43;;;;;;;7.60;4.78;;;;;;;;;;4909798;29;20028;-55
2022/04/26 06:30:09;;;;;;;6.38;5.07;;;;;;;;;;4908287;29;20084;-57
2022/04/26 06:32:34;;;;;;;6.93;4.97;;;;;;;;;;4910208;29;20044;-55
2022/04/26 06:35:00;;;;;;;7.90;5.43;;;;;;;;;;4910947;29;20055;-57
2022/04/26 06:37:25;;;;;;;8.43;5.40;;;;;;;;;;4912757;29;20076;-59
2022/04/26 06:39:51;;;;;;;7.90;5.22;;;;;;;;;;4913010;29;20063;-56
2022/04/26 06:42:17;;;;;;;7.30;5.43;;;;;;;;;;4910374;29;20048;-58
2022/04/26 06:44:42;;;;;;;7.57;5.57;;;;;;;;;;4913455;29;20092;-56
2022/04/26 06:47:08;;;;;;;6.75;5.13;;;;;;;;;;4913360;29;20051;-54
2022/04/26 06:49:33;;;;;;;6.38;5.15;;;;;;;;;;4910381;29;20048;-57
2022/04/26 06:51:59;;;;;;;6.43;4.65;;;;;;;;;;4912113;29;20125;-56
2022/04/26 06:54:24;;;;;;;7.30;5.22;;;;;;;;;;4911029;29;20482;-57
2022/04/26 06:56:50;;;;;;;7.05;5.60;;;;;;;;;;4915891;29;20635;-58
2022/04/26 06:59:15;;;;;;;6.90;5.57;;;;;;;;;;4911430;29;20056;-57
2022/04/26 07:01:40;;;;;;;7.03;5.10;;;;;;;;;;4912948;29;20047;-58
2022/04/26 07:04:07;;;;;;;8.15;5.43;;;;;;;;;;4913184;29;20040;-59
2022/04/26 07:06:33;;;;;;;8.55;5.78;;;;;;;;;;4914380;29;20096;-57
2022/04/26 07:08:59;;;;;;;8.00;5.80;;;;;;;;;;4917797;29;20044;-57
2022/04/26 07:11:25;;;;;;;9.90;5.80;;;;;;;;;;4913502;29;20048;-56
2022/04/26 07:13:52;;;;;;;12.80;6.40;;;;;;;;;;4915824;29;20040;-56
2022/04/26 07:16:18;;;;;;;11.15;6.85;;;;;;;;;;4914818;29;20111;-56
2022/04/26 07:18:43;;;;;;;8.75;5.90;;;;;;;;;;4916826;29;20115;-58
2022/04/26 07:21:08;;;;;;;7.82;5.65;;;;;;;;;;4915726;29;20035;-58
2022/04/26 07:23:34;;;;;;;8.85;6.10;;;;;;;;;;4914009;29;20044;-58
2022/04/26 07:26:00;;;;;;;9.55;6.05;;;;;;;;;;4914532;29;20507;-58
2022/04/26 07:28:25;;;;;;;7.22;5.90;;;;;;;;;;4914481;29;20044;-57
2022/04/26 07:30:50;;;;;;;8.32;5.63;;;;;;;;;;4913533;29;20031;-58
2022/04/26 07:36:00;;;;;;;7.65;5.30;;;;;;;;;;4910164;29;20067;-58
2022/04/26 07:38:25;;;;;;;7.30;5.07;;;;;;;;;;4916676;29;20505;-58
2022/04/26 07:40:51;;;;;;;6.20;4.55;;;;;;;;;;4915311;29;20048;-58
2022/04/26 07:43:17;;;;;;;6.15;4.70;;;;;;;;;;4914883;29;20048;-57
2022/04/26 07:45:44;;;;;;;6.07;4.53;;;;;;;;;;4913689;29;20031;-57
2022/04/26 07:48:10;;;;;;;7.63;4.97;;;;;;;;;;4914358;29;20036;-59
2022/04/26 07:50:36;;;;;;;6.38;4.97;;;;;;;;;;4911733;29;20176;-57
2022/04/26 07:53:02;;;;;;;6.22;4.63;;;;;;;;;;4910752;29;20456;-57
2022/04/26 07:55:29;;;;;;;6.75;4.60;;;;;;;;;;4910690;29;20081;-58
2022/04/26 07:57:54;;;;;;;6.40;4.60;;;;;;;;;;4915756;29;20156;-63
2022/04/26 08:00:20;;;;;;;9.68;5.70;;;;;;;;;;4913503;29;20121;-58
2022/04/26 08:02:45;;;;;;;7.78;5.32;;;;;;;;;;4910874;29;20131;-58
2022/04/26 08:05:12;;;;;;;7.28;4.28;;;;;;;;;;4910011;29;20119;-58
2022/04/26 08:07:39;;;;;;;6.90;4.35;;;;;;;;;;4909935;29;20555;-57
2022/04/26 08:10:09;;;;;;;6.07;4.40;;;;;;;;;;4912598;29;20044;-58
2022/04/26 08:12:36;;;;;;;6.95;4.32;;;;;;;;;;4909709;29;20132;-58
2022/04/26 08:15:02;;;;;;;8.02;4.45;;;;;;;;;;4896320;29;20082;-58
2022/04/26 08:17:27;;;;;;;8.02;4.03;;;;;;;;;;4907879;29;20131;-56
2022/04/26 08:19:52;;;;;;;5.32;4.22;;;;;;;;;;4913814;29;20060;-56
2022/04/26 08:22:18;;;;;;;8.45;4.80;;;;;;;;;;4912912;29;20403;-56
2022/04/26 08:27:30;;;;;;;4.35;3.60;;;;;;;;;;4909571;29;20075;-59
2022/04/26 08:29:57;;;;;;;6.20;4.30;;;;;;;;;;4913016;29;20415;-57
2022/04/26 08:32:28;;;;;;;7.95;4.38;;;;;;;;;;4913098;29;20052;-57
2022/04/26 08:34:54;;;;;;;5.70;3.80;;;;;;;;;;4912960;29;20588;-59
2022/04/26 08:37:20;;;;;;;6.20;3.72;;;;;;;;;;4906481;29;20052;-55
2022/04/26 08:39:46;;;;;;;5.78;3.33;;;;;;;;;;4896547;29;20032;-57
2022/04/26 08:42:12;;;;;;;6.35;3.15;;;;;;;;;;4914912;29;20024;-61
2022/04/26 08:44:38;;;;;;;3.22;2.83;;;;;;;;;;4915704;29;20048;-57
2022/04/26 08:52:49;;;;;;;5.80;2.85;;;;;;;;;;4914974;29;20608;-57
2022/04/26 08:55:16;;;;;;;3.72;2.63;;;;;;;;;;4905855;29;20178;-66
2022/04/26 08:57:41;;;;;;;2.63;2.30;;;;;;;;;;4896327;29;20060;-58
2022/04/26 09:00:11;;;;;;;4.55;2.50;;;;;;;;;;4896682;29;20420;-58
2022/04/26 09:02:37;;;;;;;4.05;2.10;;;;;;;;;;4909285;29;20043;-57
2022/04/26 09:05:12;;;;;;;4.15;2.80;;;;;;;;;;4908700;29;20504;-57
2022/04/26 09:07:38;;;;;;;7.63;2.25;;;;;;;;;;4910081;29;20065;-57
2022/04/26 09:10:06;;;;;;;2.85;1.92;;;;;;;;;;4908701;29;20475;-56
2022/04/26 09:13:01;;;;;;;2.97;2.38;;;;;;;;;;4914527;29;20061;-57
2022/04/26 09:15:39;;;;;;;3.33;2.60;;;;;;;;;;4892222;29;20054;-57
2022/04/26 09:18:20;;;;;;;6.03;3.10;;;;;;;;;;4910260;29;20072;-57
2022/04/26 09:20:46;;;;;;;5.28;2.50;;;;;;;;;;4913131;29;20486;-56
2022/04/26 09:23:26;;;;;;;2.08;1.80;;;;;;;;;;4914435;29;20052;-57
2022/04/26 09:26:07;;;;;;;3.45;2.40;;;;;;;;;;4912929;29;20048;-56
2022/04/26 09:28:34;;;;;;;4.05;2.13;;;;;;;;;;4914111;29;20048;-57
2022/04/26 09:31:00;;;;;;;2.85;1.65;;;;;;;;;;4915127;29;20056;-57
2022/04/26 09:33:33;;;;;;;3.03;1.80;;;;;;;;;;4912523;29;20028;-57
2022/04/26 09:36:00;;;;;;;2.85;1.60;;;;;;;;;;4914882;29;20084;-56
2022/04/26 09:38:26;;;;;;;1.67;1.38;;;;;;;;;;4912214;29;20068;-57
2022/04/26 09:41:18;;;;;;;2.85;1.73;;;;;;;;;;4911277;29;20040;-54
2022/04/26 09:43:44;;;;;;;3.55;1.90;;;;;;;;;;4911408;29;20076;-57
2022/04/26 09:46:09;;;;;;;3.22;2.47;;;;;;;;;;4908905;29;20263;-60
2022/04/26 09:48:37;;;;;;;5.55;2.90;;;;;;;;;;4894353;29;20064;-62
2022/04/26 09:51:03;;;;;;;2.60;2.08;;;;;;;;;;4892936;29;20049;-57
2022/04/26 09:53:32;;;;;;;2.08;1.90;;;;;;;;;;4905394;29;20048;-57
2022/04/26 09:55:59;;;;;;;3.75;2.10;;;;;;;;;;4897712;29;20132;-57
2022/04/26 09:58:29;;;;;;;3.45;2.20;;;;;;;;;;4899219;29;20076;-57
2022/04/26 10:01:01;;;;;;;3.38;2.50;;;;;;;;;;4909402;29;20162;-56
2022/04/26 10:03:32;;;;;;;5.45;2.97;;;;;;;;;;4913832;29;20020;-55
2022/04/26 10:06:06;;;;;;;4.97;2.20;;;;;;;;;;4910228;29;20066;-56
2022/04/26 10:08:37;;;;;;;2.78;1.80;;;;;;;;;;4908379;29;20402;-57
2022/04/26 10:11:03;;;;;;;2.00;1.50;;;;;;;;;;4899532;29;20049;-56
2022/04/26 10:13:32;;;;;;;1.60;1.50;;;;;;;;;;4888169;29;20132;-58
2022/04/26 10:16:03;;;;;;;1.70;1.60;;;;;;;;;;4891847;29;20075;-59
2022/04/26 10:18:31;;;;;;;2.47;1.90;;;;;;;;;;4894639;29;20433;-60
2022/04/26 10:20:57;;;;;;;3.40;2.30;;;;;;;;;;4890518;29;20068;-58
2022/04/26 10:23:22;;;;;;;2.55;1.70;;;;;;;;;;4891312;29;20462;-57
2022/04/26 10:28:51;;;;;;;2.70;2.05;;;;;;;;;;4912197;29;20419;-57
2022/04/26 10:31:17;;;;;;;3.83;2.38;;;;;;;;;;4913915;29;20079;-55
2022/04/26 10:33:46;;;;;;;2.53;1.75;;;;;;;;;;4913758;29;20048;-54
2022/04/26 10:36:32;;;;;;;4.35;2.13;;;;;;;;;;4911958;29;20577;-58
2022/04/26 10:39:12;;;;;;;3.55;1.90;;;;;;;;;;4915740;29;20043;-58
2022/04/26 10:41:42;;;;;;;4.50;1.80;;;;;;;;;;4910777;29;20056;-57
2022/04/26 10:44:13;;;;;;;4.90;2.17;;;;;;;;;;4915778;28;20048;-58
2022/04/26 10:46:39;;;;;;;4.30;2.08;;;;;;;;;;4912014;29;20411;-58
2022/04/26 10:49:43;;;;;;;3.50;2.00;;;;;;;;;;4915518;29;20504;-56
2022/04/26 10:52:26;;;;;;;1.70;1.45;;;;;;;;;;4912059;29;20127;-58
2022/04/26 10:54:55;;;;;;;1.58;1.20;;;;;;;;;;4912271;28;20040;-55
2022/04/26 10:57:31;;;;;;;2.30;1.60;;;;;;;;;;4913481;29;20044;-53
2022/04/26 11:00:16;;;;;;;1.77;1.42;;;;;;;;;;4912660;28;20471;-57
2022/04/26 11:02:47;;;;;;;1.85;1.65;;;;;;;;;;4915110;29;20513;-60
2022/04/26 11:05:26;;;;;;;1.67;1.58;;;;;;;;;;4918898;29;20296;-57
2022/04/26 11:07:53;;;;;;;2.65;1.98;;;;;;;;;;4913442;29;20044;-57
2022/04/26 11:10:25;;;;;;;4.40;2.40;;;;;;;;;;4916052;29;20096;-55
2022/04/26 11:12:51;;;;;;;4.70;2.50;;;;;;;;;;4916742;29;20039;-57
2022/04/26 11:15:21;;;;;;;4.78;2.45;;;;;;;;;;4916814;29;20092;-54
2022/04/26 11:17:49;;;;;;;5.22;2.90;;;;;;;;;;4911043;29;20044;-55
2022/04/26 11:20:20;;;;;;;5.50;2.10;;;;;;;;;;4914496;29;20063;-56
2022/04/26 11:22:53;;;;;;;5.47;2.10;;;;;;;;;;4915880;29;20078;-55
2022/04/26 11:28:10;;;;;;;6.13;2.40;;;;;;;;;;4911766;29;20746;-57
2022/04/26 11:30:39;;;;;;;4.13;1.88;;;;;;;;;;4913056;29;20032;-56
2022/04/26 11:33:11;;;;;;;2.05;1.52;;;;;;;;;;4916299;29;20024;-56
2022/04/26 11:35:37;;;;;;;2.30;1.55;;;;;;;;;;4912744;29;20055;-57
2022/04/26 11:38:22;;;;;;;3.30;1.88;;;;;;;;;;4912665;29;20087;-53
2022/04/26 11:40:50;;;;;;;2.33;1.80;;;;;;;;;;4914876;29;20084;-53
2022/04/26 11:43:18;;;;;;;3.92;1.80;;;;;;;;;;4913746;29;20139;-54
2022/04/26 11:45:49;;;;;;;2.55;1.60;;;;;;;;;;4911846;29;20368;-53
2022/04/26 11:48:16;;;;;;;2.13;1.60;;;;;;;;;;4912698;29;20043;-55
2022/04/26 11:50:43;;;;;;;2.70;1.77;;;;;;;;;;4913466;29;20086;-55
2022/04/26 11:53:14;;;;;;;2.40;1.35;;;;;;;;;;4913482;29;20040;-55
2022/04/26 11:55:42;;;;;;;3.13;1.50;;;;;;;;;;4904934;29;20048;-54
2022/04/26 11:58:19;;;;;;;1.60;1.50;;;;;;;;;;4899971;29;20052;-55
2022/04/26 12:01:02;;;;;;;2.80;1.60;;;;;;;;;;4910615;29;20134;-51
2022/04/26 12:03:45;;;;;;;3.65;1.50;;;;;;;;;;4913383;29;20041;-55
2022/04/26 12:06:12;;;;;;;2.28;1.30;;;;;;;;;;4891784;29;20128;-56
2022/04/26 12:08:41;;;;;;;1.90;1.35;;;;;;;;;;4893990;29;20056;-56
2022/04/26 12:11:35;;;;;;;1.90;1.55;;;;;;;;;;4904555;29;20044;-59
2022/04/26 12:14:13;;;;;;;1.90;1.50;;;;;;;;;;4912956;29;20423;-56
2022/04/26 12:16:51;;;;;;;1.42;1.20;;;;;;;;;;4910982;29;20044;-56
2022/04/26 12:19:17;;;;;;;3.33;1.10;;;;;;;;;;4909751;29;20056;-54
2022/04/26 12:21:54;;;;;;;1.33;1.20;;;;;;;;;;4910401;29;20055;-56
2022/04/26 12:24:29;;;;;;;3.28;1.65;;;;;;;;;;4893451;29;20045;-56
2022/04/26 12:26:57;;;;;;;3.78;1.83;;;;;;;;;;4908282;29;20071;-55
2022/04/26 12:29:23;;;;;;;2.63;2.13;;;;;;;;;;4913435;29;20570;-57
2022/04/26 12:31:49;;;;;;;2.10;1.85;;;;;;;;;;4907619;29;20054;-54
2022/04/26 12:34:19;;;;;;;1.70;1.60;;;;;;;;;;4910639;29;20068;-57
2022/04/26 12:37:06;;;;;;;3.03;1.95;;;;;;;;;;4911992;29;20498;-55
2022/04/26 12:39:41;;;;;;;2.28;1.70;;;;;;;;;;4908537;29;20502;-52
2022/04/26 12:42:09;;;;;;;2.15;1.65;;;;;;;;;;4913663;29;20462;-57
2022/04/26 12:44:37;;;;;;;3.60;1.77;;;;;;;;;;4894415;29;20052;-55
2022/04/26 12:52:58;;;;;;;1.80;0.82;;;;;;;;;;4891590;29;20064;-56
2022/04/26 12:55:27;;;;;;;1.20;0.85;;;;;;;;;;4893024;29;20112;-58
2022/04/26 12:57:54;;;;;;;1.20;0.80;;;;;;;;;;4892705;29;20395;-56
2022/04/26 13:00:21;;;;;;;1.02;0.80;;;;;;;;;;4891153;29;20028;-55
2022/04/26 13:02:48;;;;;;;1.42;0.90;;;;;;;;;;4892131;29;20052;-56
2022/04/26 13:05:14;;;;;;;1.08;0.98;;;;;;;;;;4893772;29;20056;-53
2022/04/26 13:07:39;;;;;;;1.02;0.93;;;;;;;;;;4893170;29;20041;-55
2022/04/26 13:10:05;;;;;;;2.42;0.80;;;;;;;;;;4893540;29;20543;-57
2022/04/26 13:12:31;;;;;;;0.90;0.90;;;;;;;;;;4891972;29;20123;-57
2022/04/26 13:14:59;;;;;;;2.58;1.40;;;;;;;;;;4904463;29;20104;-57
2022/04/26 13:17:24;;;;;;;1.90;1.20;;;;;;;;;;4910182;29;20072;-57
2022/04/26 13:19:50;;;;;;;1.10;1.00;;;;;;;;;;4913038;29;20067;-56
2022/04/26 13:22:16;;;;;;;2.03;0.90;;;;;;;;;;4906783;29;20072;-56
2022/04/26 13:24:41;;;;;;;1.00;1.00;;;;;;;;;;4890978;29;20044;-55
2022/04/26 13:27:07;;;;;;;1.40;1.00;;;;;;;;;;4895142;29;20047;-56
2022/04/26 13:29:32;;;;;;;2.00;1.10;;;;;;;;;;4907912;29;20049;-55
2022/04/26 13:31:58;;;;;;;1.20;1.05;;;;;;;;;;4911004;29;20443;-59
2022/04/26 13:34:23;;;;;;;0.68;0.68;;;;;;;;;;4910830;29;20063;-56
2022/04/26 13:36:49;;;;;;;1.65;1.15;;;;;;;;;;4910124;29;20032;-55
2022/04/26 13:39:15;;;;;;;1.08;1.00;;;;;;;;;;4893424;29;20486;-57
2022/04/26 13:41:40;;;;;;;1.23;1.13;;;;;;;;;;4906415;29;20070;-53
2022/04/26 13:44:06;;;;;;;4.38;1.20;;;;;;;;;;4915756;29;20048;-52
2022/04/26 13:46:32;;;;;;;1.23;1.00;;;;;;;;;;4911585;29;20123;-56
2022/04/26 13:48:57;;;;;;;2.28;1.30;;;;;;;;;;4910207;29;20130;-53
2022/04/26 13:51:27;;;;;;;1.40;1.27;;;;;;;;;;4914216;29;20115;-55
2022/04/26 13:53:52;;;;;;;4.20;1.40;;;;;;;;;;4906097;29;20036;-56
2022/04/26 13:56:18;;;;;;;3.92;1.50;;;;;;;;;;4905304;29;20444;-57
2022/04/26 13:58:43;;;;;;;3.25;1.30;;;;;;;;;;4909911;29;20084;-55
2022/04/26 14:01:09;;;;;;;1.70;1.60;;;;;;;;;;4893944;29;20096;-54
2022/04/26 14:03:34;;;;;;;3.92;2.55;;;;;;;;;;4895003;29;20044;-55
2022/04/26 14:06:01;;;;;;;1.48;1.30;;;;;;;;;;4895711;29;20052;-54
2022/04/26 14:08:27;;;;;;;1.60;1.15;;;;;;;;;;4897453;29;20499;-58
2022/04/26 14:10:53;;;;;;;1.50;1.40;;;;;;;;;;4898680;29;20075;-56
2022/04/26 14:13:18;;;;;;;1.92;1.50;;;;;;;;;;4898302;29;20037;-56
2022/04/26 14:23:55;;;;;;;2.38;1.73;;;;;;;;;;4912228;29;20055;-55
2022/04/26 14:26:21;;;;;;;2.00;1.67;;;;;;;;;;4909041;29;20060;-55
2022/04/26 14:28:46;;;;;;;4.72;1.90;;;;;;;;;;4907992;29;20104;-57
2022/04/26 14:31:11;;;;;;;3.30;2.05;;;;;;;;;;4915787;29;20063;-57
2022/04/26 14:33:38;;;;;;;3.55;2.30;;;;;;;;;;4912204;29;20068;-57
2022/04/26 14:36:04;;;;;;;15.10;3.30;;;;;;;;;;4914577;29;20048;-55
2022/04/26 14:38:29;;;;;;;11.98;3.10;;;;;;;;;;4915500;29;20111;-58
2022/04/26 14:40:55;;;;;;;16.85;3.25;;;;;;;;;;4912897;29;20044;-55
2022/04/26 14:43:20;;;;;;;9.55;3.45;;;;;;;;;;4912068;29;20123;-58
2022/04/26 14:45:46;;;;;;;3.95;2.60;;;;;;;;;;4907748;29;20045;-57
2022/04/26 14:48:14;;;;;;;4.88;2.85;;;;;;;;;;4895605;29;20476;-56
2022/04/26 14:50:40;;;;;;;5.18;2.17;;;;;;;;;;4923351;29;20163;-56
2022/04/26 14:53:06;;;;;;;3.40;2.40;;;;;;;;;;4909281;29;20044;-57
2022/04/26 14:55:32;;;;;;;3.63;2.60;;;;;;;;;;4890920;29;20486;-56
2022/04/26 14:57:57;;;;;;;2.95;2.65;;;;;;;;;;4893960;29;20045;-56
2022/04/26 15:00:23;;;;;;;3.60;2.70;;;;;;;;;;4889945;29;20056;-56
2022/04/26 15:02:48;;;;;;;4.18;3.00;;;;;;;;;;4895279;29;20044;-59
2022/04/26 15:05:14;;;;;;;7.43;2.85;;;;;;;;;;4895061;29;20049;-58
2022/04/26 15:10:25;;;;;;;4.18;2.60;;;;;;;;;;4895433;29;20038;-54
2022/04/26 15:18:20;;;;;;;3.00;2.55;;;;;;;;;;4913651;29;20587;-57
2022/04/26 15:20:48;;;;;;;4.32;2.85;;;;;;;;;;4911950;29;20059;-56
2022/04/26 15:23:15;;;;;;;7.15;2.75;;;;;;;;;;4912768;29;20409;-58
2022/04/26 15:25:40;;;;;;;4.35;2.35;;;;;;;;;;4913453;29;20048;-58
2022/04/26 15:28:06;;;;;;;3.67;2.50;;;;;;;;;;4891077;29;20051;-56
2022/04/26 15:30:32;;;;;;;3.72;2.92;;;;;;;;;;4909132;29;20107;-53
2022/04/26 15:32:57;;;;;;;5.38;2.85;;;;;;;;;;4907474;29;20047;-52
2022/04/26 15:35:22;;;;;;;3.78;2.85;;;;;;;;;;4896559;29;20131;-57
2022/04/26 15:37:48;;;;;;;2.42;2.20;;;;;;;;;;4910128;29;20065;-56
2022/04/26 15:40:14;;;;;;;4.32;2.72;;;;;;;;;;4897221;29;20502;-58
2022/04/26 15:42:39;;;;;;;4.85;2.70;;;;;;;;;;4891499;29;20060;-56
2022/04/26 15:45:05;;;;;;;3.38;2.70;;;;;;;;;;4892672;29;20135;-54
2022/04/26 15:47:30;;;;;;;4.45;2.80;;;;;;;;;;4891642;29;20076;-55
2022/04/26 15:49:56;;;;;;;3.80;3.00;;;;;;;;;;4893378;29;20037;-59
2022/04/26 15:52:22;;;;;;;4.15;3.15;;;;;;;;;;4892408;29;20061;-57
2022/04/26 15:54:47;;;;;;;4.63;2.55;;;;;;;;;;4894595;29;20055;-55
2022/04/26 15:57:13;;;;;;;6.40;3.05;;;;;;;;;;4891335;29;20087;-54
2022/04/26 15:59:39;;;;;;;5.15;2.80;;;;;;;;;;4891524;29;20052;-54
2022/04/26 16:02:04;;;;;;;2.97;2.67;;;;;;;;;;4888540;29;20104;-55
2022/04/26 16:04:30;;;;;;;3.60;2.67;;;;;;;;;;4895044;29;20135;-56
2022/04/26 16:06:55;;;;;;;5.65;3.58;;;;;;;;;;4887748;29;20055;-59
2022/04/26 16:20:29;;;;;;;3.63;2.95;;;;;;;;;;4903375;29;20083;-57
2022/04/26 16:23:05;;;;;;;3.70;2.47;;;;;;;;;;4913673;29;20170;-58
2022/04/26 16:25:31;;;;;;;4.20;3.30;;;;;;;;;;4909441;29;20084;-60
2022/04/26 16:27:57;;;;;;;5.00;3.60;;;;;;;;;;4912767;29;20032;-59
2022/04/26 16:30:23;;;;;;;5.75;3.58;;;;;;;;;;4914115;29;20960;-57
2022/04/26 16:32:48;;;;;;;5.28;3.40;;;;;;;;;;4911031;29;20135;-58
2022/04/26 16:35:14;;;;;;;6.03;3.88;;;;;;;;;;4911833;29;20048;-57
2022/04/26 16:37:41;;;;;;;4.70;3.30;;;;;;;;;;4912708;29;20079;-56
2022/04/26 16:40:09;;;;;;;3.47;3.00;;;;;;;;;;4910241;29;20043;-56
2022/04/26 16:42:35;;;;;;;4.15;3.15;;;;;;;;;;4904394;29;20051;-58
2022/04/26 16:45:01;;;;;;;4.55;3.67;;;;;;;;;;4911130;29;20062;-57
2022/04/26 16:47:26;;;;;;;5.18;3.40;;;;;;;;;;4912086;29;20044;-57
2022/04/26 16:49:52;;;;;;;5.03;3.67;;;;;;;;;;4912501;29;20439;-59
2022/04/26 16:52:17;;;;;;;4.35;3.50;;;;;;;;;;4912746;29;20119;-58
2022/04/26 16:54:42;;;;;;;10.82;3.83;;;;;;;;;;4910637;29;20048;-58
2022/04/26 16:57:07;;;;;;;4.45;3.42;;;;;;;;;;4910365;29;20450;-55
2022/04/26 16:59:33;;;;;;;5.38;3.25;;;;;;;;;;4911916;29;20156;-55
2022/04/26 17:01:59;;;;;;;5.45;3.15;;;;;;;;;;4910451;29;20040;-58
2022/04/26 17:04:26;;;;;;;5.28;3.67;;;;;;;;;;4909544;29;20062;-56
2022/04/26 17:06:52;;;;;;;4.30;3.28;;;;;;;;;;4908065;29;20097;-56
2022/04/26 17:09:20;;;;;;;6.45;2.88;;;;;;;;;;4911743;29;20055;-55
2022/04/26 17:11:47;;;;;;;3.05;2.60;;;;;;;;;;4911247;29;20056;-57
2022/04/26 17:14:16;;;;;;;4.38;2.78;;;;;;;;;;4912634;29;20036;-56
2022/04/26 17:16:45;;;;;;;4.05;3.10;;;;;;;;;;4912980;29;20040;-59
2022/04/26 17:19:20;;;;;;;5.18;3.13;;;;;;;;;;4911083;29;20047;-57
2022/04/26 17:21:46;;;;;;;3.80;3.08;;;;;;;;;;4910123;29;20055;-57
2022/04/26 17:26:57;;;;;;;4.00;2.90;;;;;;;;;;4911686;29;20091;-57
2022/04/26 17:29:23;;;;;;;3.30;2.70;;;;;;;;;;4909122;29;20064;-57
2022/04/26 17:31:52;;;;;;;3.47;2.90;;;;;;;;;;4912512;29;20036;-54
2022/04/26 17:34:19;;;;;;;2.92;2.55;;;;;;;;;;4910628;29;20112;-58
2022/04/26 17:36:44;;;;;;;3.45;3.00;;;;;;;;;;4911691;29;20051;-57
2022/04/26 17:39:12;;;;;;;3.30;2.85;;;;;;;;;;4907844;29;20060;-56
2022/04/26 17:41:42;;;;;;;3.50;3.03;;;;;;;;;;4912213;29;20055;-54
2022/04/26 17:44:09;;;;;;;4.55;3.22;;;;;;;;;;4909767;29;20060;-57
2022/04/26 17:46:36;;;;;;;4.32;3.28;;;;;;;;;;4906831;29;20029;-52
2022/04/26 17:49:02;;;;;;;6.90;3.60;;;;;;;;;;4912532;29;20523;-55
2022/04/26 17:51:28;;;;;;;4.55;3.05;;;;;;;;;;4911113;29;20415;-54
2022/04/26 17:56:39;;;;;;;3.55;2.70;;;;;;;;;;4912514;29;20149;-53
2022/04/26 17:59:06;;;;;;;3.08;2.33;;;;;;;;;;4910938;29;20071;-55
2022/04/26 18:01:34;;;;;;;7.00;2.55;;;;;;;;;;4911959;29;20043;-56
2022/04/26 18:04:03;;;;;;;3.80;2.50;;;;;;;;;;4912899;29;20509;-58
2022/04/26 18:06:29;;;;;;;3.58;2.55;;;;;;;;;;4911530;29;20116;-61
2022/04/26 18:08:55;;;;;;;3.22;2.78;;;;;;;;;;4913055;29;20089;-56
2022/04/26 18:11:20;;;;;;;3.17;2.50;;;;;;;;;;4908981;29;20500;-56
2022/04/26 18:13:49;;;;;;;2.85;2.65;;;;;;;;;;4905805;29;20044;-58
2022/04/26 18:16:15;;;;;;;4.03;2.30;;;;;;;;;;4905699;29;20049;-55
2022/04/26 18:18:40;;;;;;;3.78;2.80;;;;;;;;;;4914374;29;20075;-56
2022/04/26 18:21:06;;;;;;;4.60;2.60;;;;;;;;;;4907428;29;20056;-54
2022/04/26 18:23:32;;;;;;;3.78;2.70;;;;;;;;;;4911235;29;20035;-57
2022/04/26 18:26:12;;;;;;;5.63;2.80;;;;;;;;;;4912610;29;20048;-56
2022/04/26 18:28:43;;;;;;;4.32;2.78;;;;;;;;;;4912126;29;20127;-56
2022/04/26 18:31:09;;;;;;;4.20;3.00;;;;;;;;;;4909929;29;20410;-58
2022/04/26 18:33:38;;;;;;;5.25;2.65;;;;;;;;;;4906951;29;20272;-58
2022/04/26 18:36:08;;;;;;;3.53;2.65;;;;;;;;;;4912022;29;20060;-58
2022/04/26 18:38:36;;;;;;;3.03;2.72;;;;;;;;;;4908481;29;20047;-58
2022/04/26 18:41:02;;;;;;;4.78;3.35;;;;;;;;;;4911347;29;20504;-55
2022/04/26 18:43:27;;;;;;;3.10;2.70;;;;;;;;;;4911086;29;20143;-58
2022/04/26 18:45:53;;;;;;;3.42;2.92;;;;;;;;;;4912239;29;20395;-57
2022/04/26 18:48:18;;;;;;;3.97;3.47;;;;;;;;;;4912044;29;20410;-58
2022/04/26 18:50:44;;;;;;;4.57;3.40;;;;;;;;;;4916219;29;20403;-58
2022/04/26 18:53:10;;;;;;;3.95;3.30;;;;;;;;;;4914761;29;20160;-53
2022/04/26 18:55:38;;;;;;;5.10;2.88;;;;;;;;;;4916675;29;20058;-58
2022/04/26 18:58:03;;;;;;;3.08;2.78;;;;;;;;;;4918166;29;20076;-56
2022/04/26 19:00:30;;;;;;;5.97;3.40;;;;;;;;;;4913534;29;20083;-55
2022/04/26 19:02:55;;;;;;;5.15;3.40;;;;;;;;;;4914727;29;20044;-59
2022/04/26 19:05:21;;;;;;;6.15;3.40;;;;;;;;;;4916158;29;20050;-57
2022/04/26 19:07:46;;;;;;;3.45;3.15;;;;;;;;;;4915861;29;20487;-58
2022/04/26 19:12:56;;;;;;;4.15;3.30;;;;;;;;;;4913613;29;20051;-58
2022/04/26 19:15:22;;;;;;;4.38;3.38;;;;;;;;;;4911810;29;20056;-57
2022/04/26 19:17:48;;;;;;;3.80;3.17;;;;;;;;;;4916055;29;20084;-57
2022/04/26 19:20:14;;;;;;;3.58;3.22;;;;;;;;;;4915653;29;20039;-58
2022/04/26 19:22:39;;;;;;;4.57;3.55;;;;;;;;;;4916703;29;20122;-58
2022/04/26 19:25:04;;;;;;;3.92;3.10;;;;;;;;;;4911376;29;20123;-57